createdAt,value
2023-04-29T00:01:21.827Z,12.40
2023-04-29T00:03:49.713Z,12.40
2023-04-29T00:06:18.417Z,12.40
2023-04-29T00:08:46.275Z,12.40
2023-04-29T00:11:13.106Z,12.40
2023-04-29T00:13:41.272Z,12.50
2023-04-29T00:16:11.786Z,12.50
2023-04-29T00:18:38.710Z,12.40
2023-04-29T00:21:06.177Z,12.50
2023-04-29T00:23:34.226Z,12.50
2023-04-29T00:26:01.680Z,12.40
2023-04-29T00:28:28.626Z,12.40
2023-04-29T00:33:24.049Z,12.40
2023-04-29T00:35:51.324Z,12.40
2023-04-29T00:38:18.251Z,12.40
2023-04-29T00:40:45.772Z,12.50
2023-04-29T00:43:13.268Z,12.50
2023-04-29T00:45:40.479Z,12.40
2023-04-29T00:48:07.907Z,12.50
2023-04-29T00:50:35.177Z,12.50
2023-04-29T00:53:02.250Z,12.50
2023-04-29T00:55:29.857Z,12.40
2023-04-29T00:57:57.725Z,12.50
2023-04-29T01:00:26.240Z,12.50
2023-04-29T01:02:57.199Z,12.50
2023-04-29T01:05:24.579Z,12.50
2023-04-29T01:08:06.942Z,12.60
2023-04-29T01:10:49.028Z,12.50
2023-04-29T01:13:30.706Z,12.50
2023-04-29T01:16:07.560Z,12.50
2023-04-29T01:18:41.359Z,12.50
2023-04-29T01:21:09.076Z,12.50
2023-04-29T01:23:36.269Z,12.50
2023-04-29T01:26:03.438Z,12.50
2023-04-29T01:29:11.267Z,12.50
2023-04-29T01:31:45.198Z,12.50
2023-04-29T01:35:00.003Z,12.50
2023-04-29T01:37:42.467Z,12.50
2023-04-29T01:40:15.449Z,12.50
2023-04-29T01:43:01.840Z,12.50
2023-04-29T01:45:31.509Z,12.50
2023-04-29T01:47:59.358Z,12.50
2023-04-29T01:50:27.230Z,12.50
2023-04-29T01:52:56.675Z,12.40
2023-04-29T01:55:23.719Z,12.50
2023-04-29T01:57:59.833Z,12.40
2023-04-29T02:00:49.793Z,12.40
2023-04-29T02:03:17.915Z,12.40
2023-04-29T02:05:48.113Z,12.40
2023-04-29T02:08:15.036Z,12.50
2023-04-29T02:10:59.231Z,12.50
2023-04-29T02:13:38.464Z,12.40
2023-04-29T02:16:13.480Z,12.40
2023-04-29T02:18:57.141Z,12.40
2023-04-29T02:21:24.882Z,12.40
2023-04-29T02:23:54.492Z,12.40
2023-04-29T02:26:24.032Z,12.40
2023-04-29T02:28:52.986Z,12.40
2023-04-29T02:31:21.310Z,12.40
2023-04-29T02:33:49.370Z,12.40
2023-04-29T02:38:44.886Z,12.40
2023-04-29T02:41:19.174Z,12.40
2023-04-29T02:43:49.095Z,12.40
2023-04-29T02:46:16.853Z,12.40
2023-04-29T02:48:43.697Z,12.40
2023-04-29T02:51:10.779Z,12.40
2023-04-29T02:53:37.659Z,12.40
2023-04-29T02:56:05.354Z,12.40
2023-04-29T02:58:32.292Z,12.40
2023-04-29T03:00:59.140Z,12.40
2023-04-29T03:03:26.276Z,12.40
2023-04-29T03:05:53.297Z,12.40
2023-04-29T03:08:20.234Z,12.40
2023-04-29T03:10:47.103Z,12.40
2023-04-29T03:13:14.041Z,12.40
2023-04-29T03:15:41.285Z,12.40
2023-04-29T03:18:09.776Z,12.40
2023-04-29T03:20:37.069Z,12.40
2023-04-29T03:23:07.990Z,12.40
2023-04-29T03:25:35.335Z,12.40
2023-04-29T03:28:02.336Z,12.40
2023-04-29T03:30:31.109Z,12.40
2023-04-29T03:32:58.738Z,12.40
2023-04-29T03:35:27.179Z,12.40
2023-04-29T03:38:17.239Z,10.90
2023-04-29T03:40:45.617Z,12.30
2023-04-29T03:43:14.063Z,12.40
2023-04-29T03:45:41.564Z,12.40
2023-04-29T03:48:08.702Z,12.40
2023-04-29T03:50:37.073Z,12.40
2023-04-29T03:53:04.091Z,12.40
2023-04-29T03:55:31.285Z,12.30
2023-04-29T03:57:58.164Z,12.30
2023-04-29T04:00:26.648Z,12.30
2023-04-29T04:02:56.091Z,12.30
2023-04-29T04:05:25.237Z,12.30
2023-04-29T04:07:56.706Z,12.30
2023-04-29T04:10:28.306Z,12.30
2023-04-29T04:12:56.574Z,12.20
2023-04-29T04:15:23.796Z,12.20
2023-04-29T04:17:51.130Z,12.20
2023-04-29T04:20:18.586Z,12.20
2023-04-29T04:25:25.521Z,12.20
2023-04-29T04:28:00.339Z,12.20
2023-04-29T04:30:46.975Z,12.20
2023-04-29T04:33:14.307Z,12.20
2023-04-29T04:35:44.035Z,12.20
2023-04-29T04:38:14.494Z,12.20
2023-04-29T04:40:42.424Z,12.10
2023-04-29T04:43:26.322Z,12.10
2023-04-29T04:45:53.806Z,12.10
2023-04-29T04:48:21.473Z,12.10
2023-04-29T04:50:50.902Z,12.10
2023-04-29T04:53:17.830Z,12.10
2023-04-29T04:55:51.893Z,12.10
2023-04-29T04:58:18.820Z,12.10
2023-04-29T05:00:46.264Z,12.10
2023-04-29T05:03:13.847Z,12.20
2023-04-29T05:05:40.764Z,12.20
2023-04-29T05:08:08.185Z,12.10
2023-04-29T05:10:40.336Z,12.10
2023-04-29T05:13:07.940Z,12.10
2023-04-29T05:15:35.808Z,12.20
2023-04-29T05:18:04.099Z,12.10
2023-04-29T05:20:31.620Z,12.10
2023-04-29T05:23:00.998Z,12.10
2023-04-29T05:25:30.569Z,12.10
2023-04-29T05:27:58.000Z,12.10
2023-04-29T05:30:27.106Z,12.10
2023-04-29T05:32:54.364Z,12.10
2023-04-29T05:35:22.197Z,12.10
2023-04-29T05:37:49.474Z,12.20
2023-04-29T05:40:35.050Z,12.10
2023-04-29T05:45:48.113Z,12.10
2023-04-29T05:48:15.212Z,12.10
2023-04-29T05:50:42.299Z,12.10
2023-04-29T05:53:09.517Z,12.10
2023-04-29T05:55:36.807Z,12.10
2023-04-29T05:58:03.665Z,12.10
2023-04-29T06:00:31.745Z,12.10
2023-04-29T06:03:06.973Z,12.10
2023-04-29T06:05:34.601Z,12.10
2023-04-29T06:08:20.838Z,12.10
2023-04-29T06:10:53.171Z,12.10
2023-04-29T06:13:20.554Z,12.10
2023-04-29T06:15:48.064Z,12.10
2023-04-29T06:18:16.022Z,12.10
2023-04-29T06:20:43.096Z,12.20
2023-04-29T06:23:10.585Z,12.20
2023-04-29T06:25:37.612Z,12.20
2023-04-29T06:28:08.898Z,12.10
2023-04-29T06:30:37.163Z,12.20
2023-04-29T06:33:04.431Z,12.20
2023-04-29T06:35:31.497Z,12.10
2023-04-29T06:37:58.395Z,12.10
2023-04-29T06:40:43.866Z,12.20
2023-04-29T06:43:30.935Z,12.20
2023-04-29T06:46:16.391Z,12.20
2023-04-29T06:48:58.106Z,12.20
2023-04-29T06:51:25.138Z,12.20
2023-04-29T06:53:51.961Z,12.20
2023-04-29T06:56:21.019Z,12.20
2023-04-29T06:58:48.121Z,12.20
2023-04-29T07:01:15.057Z,12.20
2023-04-29T07:03:44.010Z,12.20
2023-04-29T07:06:12.668Z,12.20
2023-04-29T07:08:39.578Z,12.30
2023-04-29T07:11:06.615Z,12.30
2023-04-29T07:16:00.840Z,12.30
2023-04-29T07:18:28.695Z,12.30
2023-04-29T07:21:01.666Z,12.30
2023-04-29T07:23:29.225Z,12.30
2023-04-29T07:25:56.046Z,12.30
2023-04-29T07:28:22.974Z,12.30
2023-04-29T07:30:53.035Z,12.40
2023-04-29T07:33:20.037Z,12.40
2023-04-29T07:35:47.183Z,12.30
2023-04-29T07:38:14.602Z,12.30
2023-04-29T07:40:42.438Z,12.30
2023-04-29T07:43:09.473Z,12.40
2023-04-29T07:45:36.728Z,12.40
2023-04-29T07:48:03.940Z,12.40
2023-04-29T07:53:00.533Z,12.40
2023-04-29T07:55:27.896Z,12.40
2023-04-29T07:57:57.526Z,12.30
2023-04-29T08:00:27.931Z,12.40
2023-04-29T08:02:56.085Z,12.30
2023-04-29T08:05:24.695Z,12.30
2023-04-29T08:07:52.641Z,12.30
2023-04-29T08:10:23.175Z,12.30
2023-04-29T08:12:50.189Z,12.40
2023-04-29T08:15:18.549Z,12.40
2023-04-29T08:17:45.789Z,12.40
2023-04-29T08:20:13.021Z,12.40
2023-04-29T08:22:39.876Z,12.30
2023-04-29T08:25:07.367Z,12.40
2023-04-29T08:27:34.286Z,12.50
2023-04-29T08:32:28.482Z,12.50
2023-04-29T08:34:56.397Z,12.40
2023-04-29T08:37:23.445Z,12.40
2023-04-29T08:39:50.242Z,12.40
2023-04-29T08:42:21.084Z,12.30
2023-04-29T08:44:49.404Z,12.40
2023-04-29T08:47:17.098Z,12.40
2023-04-29T08:49:44.241Z,12.40
2023-04-29T08:52:11.678Z,12.40
2023-04-29T08:54:38.739Z,12.40
2023-04-29T08:57:06.548Z,12.30
2023-04-29T08:59:33.566Z,12.30
2023-04-29T09:02:01.048Z,12.40
2023-04-29T09:05:08.994Z,12.40
2023-04-29T09:07:36.891Z,12.40
2023-04-29T09:10:05.419Z,12.40
2023-04-29T09:12:32.386Z,12.50
2023-04-29T09:15:00.047Z,12.50
2023-04-29T09:17:49.364Z,12.40
2023-04-29T09:20:22.238Z,12.50
2023-04-29T09:23:16.239Z,12.40
2023-04-29T09:25:57.698Z,12.40
2023-04-29T09:28:24.901Z,12.40
2023-04-29T09:30:51.818Z,12.40
2023-04-29T09:33:19.186Z,12.40
2023-04-29T09:35:47.138Z,12.40
2023-04-29T09:38:16.491Z,12.40
2023-04-29T09:40:58.144Z,12.30
2023-04-29T09:48:20.860Z,12.30
2023-04-29T09:51:02.218Z,12.30
2023-04-29T09:53:31.732Z,12.30
2023-04-29T09:56:03.603Z,12.30
2023-04-29T09:58:33.889Z,12.30
2023-04-29T10:01:02.440Z,12.40
2023-04-29T10:03:37.447Z,12.30
2023-04-29T10:06:06.166Z,12.40
2023-04-29T10:08:34.294Z,12.30
2023-04-29T10:11:03.362Z,12.20
2023-04-29T10:13:31.253Z,12.20
2023-04-29T10:16:08.227Z,12.20
2023-04-29T10:18:39.952Z,12.20
2023-04-29T10:21:09.600Z,12.30
2023-04-29T10:23:37.813Z,12.30
2023-04-29T10:26:07.172Z,12.40
2023-04-29T10:28:35.349Z,12.40
2023-04-29T10:31:06.755Z,12.50
2023-04-29T10:33:35.704Z,12.50
2023-04-29T10:36:03.777Z,12.50
2023-04-29T10:38:41.772Z,12.50
2023-04-29T10:41:21.541Z,12.50
2023-04-29T10:43:49.027Z,12.60
2023-04-29T10:46:26.921Z,12.60
2023-04-29T10:49:00.886Z,12.50
2023-04-29T10:51:31.614Z,12.60
2023-04-29T10:54:03.520Z,12.70
2023-04-29T10:57:03.573Z,12.70
2023-04-29T10:59:33.384Z,12.80
2023-04-29T11:02:00.596Z,12.80
2023-04-29T11:04:27.910Z,12.90
2023-04-29T11:06:59.292Z,13.00
2023-04-29T11:09:27.995Z,13.00
2023-04-29T11:12:06.072Z,13.00
2023-04-29T11:14:41.949Z,13.00
2023-04-29T11:17:15.327Z,12.90
2023-04-29T11:19:45.442Z,13.00
2023-04-29T11:22:30.632Z,13.00
2023-04-29T11:25:03.258Z,13.10
2023-04-29T11:27:38.697Z,13.10
2023-04-29T11:30:07.586Z,13.20
2023-04-29T11:32:37.106Z,13.20
2023-04-29T11:35:12.115Z,13.20
2023-04-29T11:37:40.443Z,13.20
2023-04-29T11:40:08.920Z,13.10
2023-04-29T11:42:40.754Z,13.10
2023-04-29T11:45:08.186Z,13.10
2023-04-29T11:47:35.523Z,13.10
2023-04-29T11:50:07.846Z,13.10
2023-04-29T11:52:37.257Z,13.10
2023-04-29T11:55:05.156Z,13.00
2023-04-29T11:57:32.164Z,13.00
2023-04-29T11:59:59.394Z,13.00
2023-04-29T12:02:33.741Z,13.00
2023-04-29T12:05:06.089Z,13.00
2023-04-29T12:07:33.112Z,13.00
2023-04-29T12:10:00.445Z,13.00
2023-04-29T12:12:28.444Z,13.00
2023-04-29T12:14:56.070Z,13.00
2023-04-29T12:17:24.535Z,13.00
2023-04-29T12:19:52.034Z,13.00
2023-04-29T12:22:20.306Z,13.00
2023-04-29T12:24:47.637Z,13.10
2023-04-29T12:27:14.584Z,13.10
2023-04-29T12:29:41.513Z,13.10
2023-04-29T12:32:12.806Z,13.10
2023-04-29T12:34:40.305Z,13.10
2023-04-29T12:37:07.213Z,13.10
2023-04-29T12:39:34.788Z,13.10
2023-04-29T12:42:03.036Z,13.20
2023-04-29T12:44:38.983Z,13.20
2023-04-29T12:47:10.913Z,13.30
2023-04-29T12:49:38.526Z,13.20
2023-04-29T12:52:06.308Z,13.20
2023-04-29T12:54:33.595Z,13.20
2023-04-29T12:57:00.805Z,13.20
2023-04-29T12:59:27.649Z,13.30
2023-04-29T13:01:55.062Z,13.20
2023-04-29T13:04:22.108Z,13.10
2023-04-29T13:06:49.482Z,13.20
2023-04-29T13:09:18.870Z,13.10
2023-04-29T13:11:46.784Z,13.10
2023-04-29T13:14:13.689Z,13.00
2023-04-29T13:16:41.101Z,13.00
2023-04-29T13:19:25.660Z,12.90
2023-04-29T13:21:54.935Z,13.00
2023-04-29T13:24:21.823Z,12.90
2023-04-29T13:26:51.806Z,12.90
2023-04-29T13:29:19.481Z,12.90
2023-04-29T13:31:46.495Z,12.90
2023-04-29T13:34:13.553Z,12.90
2023-04-29T13:36:40.598Z,13.00
2023-04-29T13:39:07.463Z,13.00
2023-04-29T13:41:35.433Z,13.10
2023-04-29T13:46:34.205Z,13.10
2023-04-29T13:49:31.050Z,13.00
2023-04-29T13:59:38.118Z,12.90
2023-04-29T14:02:24.291Z,12.90
2023-04-29T14:04:53.215Z,13.00
2023-04-29T14:07:20.946Z,12.90
2023-04-29T14:09:49.322Z,13.00
2023-04-29T14:12:16.307Z,13.00
2023-04-29T14:14:43.288Z,13.00
2023-04-29T14:17:10.195Z,13.00
2023-04-29T14:19:37.234Z,13.00
2023-04-29T14:22:04.138Z,13.10
2023-04-29T14:24:31.200Z,13.00
2023-04-29T14:26:58.153Z,13.00
2023-04-29T14:29:25.180Z,13.10
2023-04-29T14:31:52.236Z,13.10
2023-04-29T14:34:19.855Z,13.10
2023-04-29T14:36:46.969Z,13.10
2023-04-29T14:39:14.041Z,13.10
2023-04-29T14:41:41.021Z,13.10
2023-04-29T14:44:07.844Z,13.20
2023-04-29T14:46:35.013Z,13.20
2023-04-29T14:49:02.194Z,13.20
2023-04-29T14:51:29.637Z,13.20
2023-04-29T14:53:56.740Z,13.20
2023-04-29T14:56:23.650Z,13.20
2023-04-29T14:58:50.499Z,13.30
2023-04-29T15:01:17.516Z,13.30
2023-04-29T15:03:45.206Z,13.30
2023-04-29T15:06:13.121Z,13.30
2023-04-29T15:08:40.084Z,13.30
2023-04-29T15:13:34.293Z,13.40
2023-04-29T15:16:01.299Z,13.30
2023-04-29T15:18:28.317Z,13.30
2023-04-29T15:20:55.443Z,13.30
2023-04-29T15:23:22.340Z,13.30
2023-04-29T15:25:49.211Z,13.30
2023-04-29T15:28:16.231Z,13.30
2023-04-29T15:30:43.216Z,13.30
2023-04-29T15:33:10.593Z,13.30
2023-04-29T15:35:38.126Z,13.40
2023-04-29T15:38:05.101Z,13.40
2023-04-29T15:40:32.196Z,13.30
2023-04-29T15:42:59.441Z,13.30
2023-04-29T15:47:54.395Z,13.30
2023-04-29T15:50:22.267Z,13.30
2023-04-29T15:52:52.479Z,13.40
2023-04-29T15:55:19.363Z,13.30
2023-04-29T15:57:46.219Z,13.20
2023-04-29T16:00:13.550Z,13.30
2023-04-29T16:02:41.062Z,13.30
2023-04-29T16:05:08.459Z,13.30
2023-04-29T16:07:36.251Z,13.20
2023-04-29T16:10:03.929Z,13.30
2023-04-29T16:12:31.516Z,13.20
2023-04-29T16:14:58.560Z,13.20
2023-04-29T16:17:25.763Z,13.20
2023-04-29T16:19:52.904Z,13.30
2023-04-29T16:22:19.953Z,13.20
2023-04-29T16:24:49.353Z,13.20
2023-04-29T16:27:17.497Z,13.20
2023-04-29T16:29:44.506Z,13.30
2023-04-29T16:32:11.545Z,13.30
2023-04-29T16:34:38.919Z,13.20
2023-04-29T16:37:12.336Z,13.30
2023-04-29T16:39:40.479Z,13.20
2023-04-29T16:42:07.646Z,13.30
2023-04-29T16:44:34.674Z,13.30
2023-04-29T16:47:02.672Z,13.30
2023-04-29T16:49:31.303Z,13.20
2023-04-29T16:51:58.647Z,13.20
2023-04-29T16:54:26.392Z,13.20
2023-04-29T16:56:53.364Z,13.30
2023-04-29T16:59:21.192Z,13.20
2023-04-29T17:01:48.212Z,14.10
2023-04-29T17:04:15.299Z,13.20
2023-04-29T17:06:43.066Z,13.20
2023-04-29T17:11:37.401Z,13.20
2023-04-29T17:14:04.441Z,13.20
2023-04-29T17:16:31.337Z,13.20
2023-04-29T17:18:58.559Z,13.20
2023-04-29T17:21:26.091Z,13.10
2023-04-29T17:26:21.290Z,13.20
2023-04-29T17:28:48.713Z,13.20
2023-04-29T17:31:16.318Z,13.10
2023-04-29T17:33:54.750Z,13.10
2023-04-29T17:36:24.437Z,13.20
2023-04-29T17:38:51.357Z,13.10
2023-04-29T17:41:18.350Z,13.10
2023-04-29T17:43:45.245Z,13.10
2023-04-29T17:46:12.057Z,13.10
2023-04-29T17:48:39.364Z,13.10
2023-04-29T17:51:06.535Z,13.10
2023-04-29T17:56:01.075Z,13.10
2023-04-29T17:58:29.171Z,13.10
2023-04-29T18:03:26.711Z,13.10
2023-04-29T18:05:54.159Z,13.10
2023-04-29T18:08:21.209Z,13.00
2023-04-29T18:10:48.524Z,13.00
2023-04-29T18:13:15.398Z,13.00
2023-04-29T18:15:42.750Z,13.00
2023-04-29T18:18:09.691Z,13.00
2023-04-29T18:20:36.637Z,13.00
2023-04-29T18:23:03.513Z,12.70
2023-04-29T18:25:30.889Z,12.90
2023-04-29T18:28:07.533Z,12.80
2023-04-29T18:30:47.601Z,12.90
2023-04-29T18:33:15.766Z,12.90
2023-04-29T18:35:43.481Z,12.90
2023-04-29T18:38:14.706Z,12.80
2023-04-29T18:40:41.798Z,12.80
2023-04-29T18:43:09.963Z,12.80
2023-04-29T18:45:36.901Z,12.80
2023-04-29T18:48:06.741Z,12.80
2023-04-29T18:50:34.123Z,12.80
2023-04-29T18:53:01.260Z,12.80
2023-04-29T18:55:28.177Z,12.80
2023-04-29T18:57:55.108Z,12.70
2023-04-29T19:00:22.029Z,12.70
2023-04-29T19:02:49.317Z,12.70
2023-04-29T19:05:16.710Z,12.70
2023-04-29T19:07:43.846Z,12.70
2023-04-29T19:10:11.257Z,12.60
2023-04-29T19:12:38.076Z,12.60
2023-04-29T19:15:05.514Z,12.60
2023-04-29T19:17:32.441Z,12.60
2023-04-29T19:19:59.380Z,12.60
2023-04-29T19:22:29.622Z,12.60
2023-04-29T19:24:56.505Z,12.60
2023-04-29T19:27:23.952Z,12.60
2023-04-29T19:29:51.410Z,12.60
2023-04-29T19:32:20.268Z,12.50
2023-04-29T19:34:47.182Z,12.50
2023-04-29T19:37:14.750Z,12.50
2023-04-29T19:39:41.643Z,12.40
2023-04-29T19:42:08.567Z,12.40
2023-04-29T19:47:03.670Z,12.30
2023-04-29T19:51:57.997Z,12.20
2023-04-29T19:54:24.976Z,12.20
2023-04-29T19:56:52.054Z,12.20
2023-04-29T19:59:19.095Z,12.10
2023-04-29T20:01:46.001Z,12.10
2023-04-29T20:04:12.983Z,12.10
2023-04-29T20:06:40.182Z,12.00
2023-04-29T20:09:09.369Z,12.00
2023-04-29T20:11:36.653Z,12.00
2023-04-29T20:14:03.746Z,11.90
2023-04-29T20:16:32.209Z,11.90
2023-04-29T20:18:59.203Z,11.90
2023-04-29T20:21:26.274Z,11.70
2023-04-29T20:23:53.526Z,11.80
2023-04-29T20:26:21.026Z,11.80
2023-04-29T20:28:47.949Z,11.70
2023-04-29T20:31:15.955Z,11.70
2023-04-29T20:33:42.962Z,11.70
2023-04-29T20:36:10.422Z,11.60
2023-04-29T20:38:37.712Z,11.50
2023-04-29T20:41:05.991Z,11.50
2023-04-29T20:43:32.855Z,11.50
2023-04-29T20:46:00.636Z,11.50
2023-04-29T20:50:56.372Z,11.50
2023-04-29T20:53:25.735Z,11.40
2023-04-29T20:55:52.669Z,11.40
2023-04-29T20:58:19.569Z,11.40
2023-04-29T21:00:46.491Z,11.40
2023-04-29T21:03:13.439Z,11.40
2023-04-29T21:05:40.341Z,11.40
2023-04-29T21:08:07.280Z,11.40
2023-04-29T21:10:34.217Z,11.30
2023-04-29T21:13:01.255Z,11.30
2023-04-29T21:17:56.853Z,11.20
2023-04-29T21:20:23.912Z,11.20
2023-04-29T21:22:50.811Z,11.20
2023-04-29T21:25:17.782Z,11.20
2023-04-29T21:27:44.772Z,11.20
2023-04-29T21:30:12.037Z,11.10
2023-04-29T21:32:39.070Z,11.10
2023-04-29T21:35:06.430Z,11.10
2023-04-29T21:40:00.964Z,11.00
2023-04-29T21:42:28.230Z,10.80
2023-04-29T21:44:57.316Z,10.70
2023-04-29T21:47:24.678Z,10.60
2023-04-29T21:49:53.245Z,10.40
2023-04-29T21:52:20.610Z,10.40
2023-04-29T21:54:47.477Z,10.30
2023-04-29T21:57:14.296Z,10.30
2023-04-29T22:02:21.822Z,10.20
2023-04-29T22:04:52.682Z,10.20
2023-04-29T22:07:21.046Z,10.20
2023-04-29T22:09:51.160Z,10.10
2023-04-29T22:12:19.307Z,10.10
2023-04-29T22:14:46.588Z,10.00
2023-04-29T22:17:14.314Z,10.00
2023-04-29T22:19:41.237Z,10.00
2023-04-29T22:22:08.859Z,10.00
2023-04-29T22:27:03.531Z,10.20
2023-04-29T22:29:30.347Z,10.20
2023-04-29T22:31:57.244Z,8.80
2023-04-29T22:34:24.127Z,10.10
2023-04-29T22:39:18.697Z,10.10
2023-04-29T22:41:45.711Z,10.10
2023-04-29T22:44:12.657Z,10.10
2023-04-29T22:46:39.589Z,10.10
2023-04-29T22:49:06.478Z,10.00
2023-04-29T22:51:33.306Z,10.00
2023-04-29T22:56:28.842Z,9.80
2023-04-29T23:01:23.218Z,9.60
2023-04-29T23:06:17.452Z,9.50
2023-04-29T23:08:44.672Z,9.40
2023-04-29T23:11:11.986Z,9.40
2023-04-29T23:13:39.269Z,9.40
2023-04-29T23:16:07.529Z,9.50
2023-04-29T23:18:36.158Z,9.50
2023-04-29T23:23:30.565Z,9.70
2023-04-29T23:25:57.485Z,9.70
2023-04-29T23:28:24.868Z,9.70
2023-04-29T23:30:51.951Z,9.70
2023-04-29T23:33:18.778Z,9.60
2023-04-29T23:35:50.432Z,9.70
2023-04-29T23:38:19.248Z,9.70
2023-04-29T23:40:47.040Z,9.70
2023-04-29T23:43:17.248Z,9.70
2023-04-29T23:45:45.851Z,9.70
2023-04-29T23:48:13.261Z,9.70
2023-04-29T23:50:40.072Z,9.70
2023-04-29T23:53:07.011Z,9.70
2023-04-29T23:55:34.507Z,9.60
